Terminal Aerodrome Forecast
Issued by NWS

Home | Current Version | Previous Version | Text Only | Print | Product List | Glossary On
Versions: 1 2 3 4 5 6 7 8 9 10 11 12 13 14
545
FTUS41 KCAR 210520
TAFHUL
TAF
KHUL 210520Z 2106/2206 26004KT P6SM SKC
     FM211300 28011G25KT P6SM SKC
     FM212100 31011KT P6SM FEW060=

USA.gov is the U.S. government's official web portal to all federal, state and local government web resources and services.